sensor_id;sensor_type;location;lat;lon;timestamp;temperature;humidity
3846;DHT22;1938;50.812;7.738;2023-07-13T00:02:04;17.30;99.90
3846;DHT22;1938;50.812;7.738;2023-07-13T00:04:29;17.20;99.90
3846;DHT22;1938;50.812;7.738;2023-07-13T00:06:55;17.20;99.90
3846;DHT22;1938;50.812;7.738;2023-07-13T00:09:21;17.20;99.90
3846;DHT22;1938;50.812;7.738;2023-07-13T00:11:53;17.10;99.90
3846;DHT22;1938;50.812;7.738;2023-07-13T00:14:19;17.00;99.90
3846;DHT22;1938;50.812;7.738;2023-07-13T00:16:44;16.90;99.90
3846;DHT22;1938;50.812;7.738;2023-07-13T00:19:11;16.90;99.90
3846;DHT22;1938;50.812;7.738;2023-07-13T00:21:40;16.80;99.90
3846;DHT22;1938;50.812;7.738;2023-07-13T00:24:07;16.70;99.90
3846;DHT22;1938;50.812;7.738;2023-07-13T00:26:33;16.60;99.90
3846;DHT22;1938;50.812;7.738;2023-07-13T00:28:59;16.50;99.90
3846;DHT22;1938;50.812;7.738;2023-07-13T00:31:25;16.50;99.90
3846;DHT22;1938;50.812;7.738;2023-07-13T00:33:51;16.40;99.90
3846;DHT22;1938;50.812;7.738;2023-07-13T00:36:16;16.40;99.90
3846;DHT22;1938;50.812;7.738;2023-07-13T00:38:42;16.40;99.90
3846;DHT22;1938;50.812;7.738;2023-07-13T00:41:08;16.30;99.90
3846;DHT22;1938;50.812;7.738;2023-07-13T00:43:33;16.10;99.90
3846;DHT22;1938;50.812;7.738;2023-07-13T00:48:29;15.90;99.90
3846;DHT22;1938;50.812;7.738;2023-07-13T00:50:57;15.90;99.90
3846;DHT22;1938;50.812;7.738;2023-07-13T00:53:25;15.90;99.90
3846;DHT22;1938;50.812;7.738;2023-07-13T00:55:52;15.80;99.90
3846;DHT22;1938;50.812;7.738;2023-07-13T00:58:19;15.80;99.90
3846;DHT22;1938;50.812;7.738;2023-07-13T01:00:47;15.70;99.90
3846;DHT22;1938;50.812;7.738;2023-07-13T01:03:14;15.70;99.90
3846;DHT22;1938;50.812;7.738;2023-07-13T01:05:40;15.60;99.90
3846;DHT22;1938;50.812;7.738;2023-07-13T01:08:05;15.60;99.90
3846;DHT22;1938;50.812;7.738;2023-07-13T01:10:32;15.60;99.90
3846;DHT22;1938;50.812;7.738;2023-07-13T01:13:08;15.50;99.90
3846;DHT22;1938;50.812;7.738;2023-07-13T01:15:44;15.50;99.90
3846;DHT22;1938;50.812;7.738;2023-07-13T01:18:25;15.20;99.90
3846;DHT22;1938;50.812;7.738;2023-07-13T01:20:59;15.10;99.90
3846;DHT22;1938;50.812;7.738;2023-07-13T01:23:26;15.00;99.90
3846;DHT22;1938;50.812;7.738;2023-07-13T01:25:54;14.80;99.90
3846;DHT22;1938;50.812;7.738;2023-07-13T01:28:20;14.80;1.00
3846;DHT22;1938;50.812;7.738;2023-07-13T01:30:46;14.70;1.00
3846;DHT22;1938;50.812;7.738;2023-07-13T01:33:17;14.50;1.00
3846;DHT22;1938;50.812;7.738;2023-07-13T01:35:44;14.40;1.00
3846;DHT22;1938;50.812;7.738;2023-07-13T01:38:11;14.40;1.00
3846;DHT22;1938;50.812;7.738;2023-07-13T01:40:37;14.50;1.00
3846;DHT22;1938;50.812;7.738;2023-07-13T01:43:03;14.40;1.00
3846;DHT22;1938;50.812;7.738;2023-07-13T01:45:29;14.30;1.00
3846;DHT22;1938;50.812;7.738;2023-07-13T01:47:54;14.30;1.00
3846;DHT22;1938;50.812;7.738;2023-07-13T01:50:20;14.30;1.00
3846;DHT22;1938;50.812;7.738;2023-07-13T01:52:46;14.20;1.00
3846;DHT22;1938;50.812;7.738;2023-07-13T01:55:11;14.20;1.00
3846;DHT22;1938;50.812;7.738;2023-07-13T01:57:37;14.30;1.00
3846;DHT22;1938;50.812;7.738;2023-07-13T02:00:05;14.30;1.00
3846;DHT22;1938;50.812;7.738;2023-07-13T02:02:31;14.40;1.00
3846;DHT22;1938;50.812;7.738;2023-07-13T02:04:58;14.40;1.00
3846;DHT22;1938;50.812;7.738;2023-07-13T02:07:23;14.50;1.00
3846;DHT22;1938;50.812;7.738;2023-07-13T02:09:49;14.60;1.00
3846;DHT22;1938;50.812;7.738;2023-07-13T02:12:14;14.60;1.00
3846;DHT22;1938;50.812;7.738;2023-07-13T02:14:40;14.60;1.00
3846;DHT22;1938;50.812;7.738;2023-07-13T02:17:06;14.60;1.00
3846;DHT22;1938;50.812;7.738;2023-07-13T02:19:31;14.70;1.00
3846;DHT22;1938;50.812;7.738;2023-07-13T02:21:57;14.70;1.00
3846;DHT22;1938;50.812;7.738;2023-07-13T02:24:23;14.80;1.00
3846;DHT22;1938;50.812;7.738;2023-07-13T02:26:48;14.80;1.00
3846;DHT22;1938;50.812;7.738;2023-07-13T02:29:14;14.80;1.00
3846;DHT22;1938;50.812;7.738;2023-07-13T02:31:40;14.80;1.00
3846;DHT22;1938;50.812;7.738;2023-07-13T02:34:05;14.80;1.00
3846;DHT22;1938;50.812;7.738;2023-07-13T02:36:31;14.80;1.00
3846;DHT22;1938;50.812;7.738;2023-07-13T02:39:00;14.70;1.00
3846;DHT22;1938;50.812;7.738;2023-07-13T02:41:26;14.70;1.00
3846;DHT22;1938;50.812;7.738;2023-07-13T02:43:52;14.80;1.00
3846;DHT22;1938;50.812;7.738;2023-07-13T02:46:17;14.80;1.00
3846;DHT22;1938;50.812;7.738;2023-07-13T02:48:45;14.70;1.00
3846;DHT22;1938;50.812;7.738;2023-07-13T02:51:11;14.70;1.00
3846;DHT22;1938;50.812;7.738;2023-07-13T02:53:37;14.70;1.00
3846;DHT22;1938;50.812;7.738;2023-07-13T02:56:04;14.60;1.00
3846;DHT22;1938;50.812;7.738;2023-07-13T02:58:30;14.60;1.00
3846;DHT22;1938;50.812;7.738;2023-07-13T03:00:56;14.60;1.00
3846;DHT22;1938;50.812;7.738;2023-07-13T03:03:24;14.60;1.00
3846;DHT22;1938;50.812;7.738;2023-07-13T03:05:58;14.60;1.00
3846;DHT22;1938;50.812;7.738;2023-07-13T03:08:25;14.60;1.00
3846;DHT22;1938;50.812;7.738;2023-07-13T03:10:59;14.60;1.00
3846;DHT22;1938;50.812;7.738;2023-07-13T03:13:25;14.50;1.00
3846;DHT22;1938;50.812;7.738;2023-07-13T03:15:51;14.50;1.00
3846;DHT22;1938;50.812;7.738;2023-07-13T03:18:16;14.50;1.00
3846;DHT22;1938;50.812;7.738;2023-07-13T03:20:42;14.60;1.00
3846;DHT22;1938;50.812;7.738;2023-07-13T03:23:07;14.60;1.00
3846;DHT22;1938;50.812;7.738;2023-07-13T03:25:33;14.70;1.00
3846;DHT22;1938;50.812;7.738;2023-07-13T03:27:58;14.70;1.00
3846;DHT22;1938;50.812;7.738;2023-07-13T03:30:24;14.80;1.00
3846;DHT22;1938;50.812;7.738;2023-07-13T03:32:49;14.80;1.00
3846;DHT22;1938;50.812;7.738;2023-07-13T03:35:15;14.90;1.00
3846;DHT22;1938;50.812;7.738;2023-07-13T03:37:41;15.00;1.00
3846;DHT22;1938;50.812;7.738;2023-07-13T03:40:08;15.00;1.00
3846;DHT22;1938;50.812;7.738;2023-07-13T03:42:35;15.00;1.00
3846;DHT22;1938;50.812;7.738;2023-07-13T03:45:01;15.10;1.00
3846;DHT22;1938;50.812;7.738;2023-07-13T03:47:26;15.10;1.00
3846;DHT22;1938;50.812;7.738;2023-07-13T03:49:52;15.20;1.00
3846;DHT22;1938;50.812;7.738;2023-07-13T03:52:18;15.30;1.00
3846;DHT22;1938;50.812;7.738;2023-07-13T03:54:44;15.30;1.00
3846;DHT22;1938;50.812;7.738;2023-07-13T03:57:09;15.40;1.00
3846;DHT22;1938;50.812;7.738;2023-07-13T03:59:35;15.50;1.00
3846;DHT22;1938;50.812;7.738;2023-07-13T04:02:01;15.70;1.00
3846;DHT22;1938;50.812;7.738;2023-07-13T04:04:28;16.00;1.00
3846;DHT22;1938;50.812;7.738;2023-07-13T04:06:53;16.30;1.00
3846;DHT22;1938;50.812;7.738;2023-07-13T04:09:19;16.80;99.90
3846;DHT22;1938;50.812;7.738;2023-07-13T04:11:45;17.30;99.90
3846;DHT22;1938;50.812;7.738;2023-07-13T04:14:11;18.00;99.90
3846;DHT22;1938;50.812;7.738;2023-07-13T04:16:36;19.20;99.90
3846;DHT22;1938;50.812;7.738;2023-07-13T04:19:02;19.70;99.90
3846;DHT22;1938;50.812;7.738;2023-07-13T04:21:29;21.10;99.90
3846;DHT22;1938;50.812;7.738;2023-07-13T04:23:55;22.20;99.90
3846;DHT22;1938;50.812;7.738;2023-07-13T04:26:21;23.60;99.90
3846;DHT22;1938;50.812;7.738;2023-07-13T04:28:48;24.90;99.90
3846;DHT22;1938;50.812;7.738;2023-07-13T04:31:14;27.00;99.90
3846;DHT22;1938;50.812;7.738;2023-07-13T04:33:39;28.70;99.90
3846;DHT22;1938;50.812;7.738;2023-07-13T04:36:06;28.90;99.90
3846;DHT22;1938;50.812;7.738;2023-07-13T04:38:35;28.00;99.90
3846;DHT22;1938;50.812;7.738;2023-07-13T04:41:04;29.40;99.90
3846;DHT22;1938;50.812;7.738;2023-07-13T04:43:31;31.00;99.90
3846;DHT22;1938;50.812;7.738;2023-07-13T04:45:57;33.00;99.90
3846;DHT22;1938;50.812;7.738;2023-07-13T04:48:23;32.80;99.90
3846;DHT22;1938;50.812;7.738;2023-07-13T04:50:55;31.80;99.90
3846;DHT22;1938;50.812;7.738;2023-07-13T04:53:22;34.30;99.90
3846;DHT22;1938;50.812;7.738;2023-07-13T04:55:48;35.90;99.90
3846;DHT22;1938;50.812;7.738;2023-07-13T04:58:13;33.90;99.90
3846;DHT22;1938;50.812;7.738;2023-07-13T05:00:39;32.00;99.90
3846;DHT22;1938;50.812;7.738;2023-07-13T05:03:05;31.40;99.90
3846;DHT22;1938;50.812;7.738;2023-07-13T05:05:31;30.60;99.90
3846;DHT22;1938;50.812;7.738;2023-07-13T05:07:57;30.80;99.90
3846;DHT22;1938;50.812;7.738;2023-07-13T05:10:23;33.10;99.90
3846;DHT22;1938;50.812;7.738;2023-07-13T05:12:50;35.50;99.90
3846;DHT22;1938;50.812;7.738;2023-07-13T05:15:16;37.30;99.90
3846;DHT22;1938;50.812;7.738;2023-07-13T05:17:46;39.00;99.90
3846;DHT22;1938;50.812;7.738;2023-07-13T05:20:12;39.90;99.90
3846;DHT22;1938;50.812;7.738;2023-07-13T05:22:37;41.30;99.90
3846;DHT22;1938;50.812;7.738;2023-07-13T05:25:06;42.40;99.90
3846;DHT22;1938;50.812;7.738;2023-07-13T05:27:33;43.00;99.90
3846;DHT22;1938;50.812;7.738;2023-07-13T05:29:59;44.00;99.90
3846;DHT22;1938;50.812;7.738;2023-07-13T05:32:25;44.70;99.90
3846;DHT22;1938;50.812;7.738;2023-07-13T05:34:50;45.40;99.90
3846;DHT22;1938;50.812;7.738;2023-07-13T05:37:16;45.20;99.90
3846;DHT22;1938;50.812;7.738;2023-07-13T05:39:41;45.70;99.90
3846;DHT22;1938;50.812;7.738;2023-07-13T05:42:07;46.50;99.90
3846;DHT22;1938;50.812;7.738;2023-07-13T05:44:33;47.10;99.90
3846;DHT22;1938;50.812;7.738;2023-07-13T05:46:58;47.40;99.90
3846;DHT22;1938;50.812;7.738;2023-07-13T05:49:24;47.40;99.90
3846;DHT22;1938;50.812;7.738;2023-07-13T05:51:49;47.20;99.90
3846;DHT22;1938;50.812;7.738;2023-07-13T05:54:15;47.70;99.90
3846;DHT22;1938;50.812;7.738;2023-07-13T05:56:41;47.90;99.90
3846;DHT22;1938;50.812;7.738;2023-07-13T05:59:06;47.70;99.90
3846;DHT22;1938;50.812;7.738;2023-07-13T06:01:32;47.40;99.90
3846;DHT22;1938;50.812;7.738;2023-07-13T06:03:58;47.60;99.90
3846;DHT22;1938;50.812;7.738;2023-07-13T06:06:23;47.30;99.90
3846;DHT22;1938;50.812;7.738;2023-07-13T06:08:49;47.40;99.90
3846;DHT22;1938;50.812;7.738;2023-07-13T06:11:18;48.00;99.90
3846;DHT22;1938;50.812;7.738;2023-07-13T06:13:44;47.40;99.90
3846;DHT22;1938;50.812;7.738;2023-07-13T06:16:10;48.10;99.90
3846;DHT22;1938;50.812;7.738;2023-07-13T06:18:37;48.20;99.90
3846;DHT22;1938;50.812;7.738;2023-07-13T06:21:22;48.20;99.90
3846;DHT22;1938;50.812;7.738;2023-07-13T06:23:49;47.90;99.90
3846;DHT22;1938;50.812;7.738;2023-07-13T06:26:16;48.40;99.90
3846;DHT22;1938;50.812;7.738;2023-07-13T06:28:43;48.80;99.90
3846;DHT22;1938;50.812;7.738;2023-07-13T06:31:10;48.20;99.90
3846;DHT22;1938;50.812;7.738;2023-07-13T06:33:36;47.00;99.90
3846;DHT22;1938;50.812;7.738;2023-07-13T06:36:03;46.00;99.90
3846;DHT22;1938;50.812;7.738;2023-07-13T06:38:30;45.70;99.90
3846;DHT22;1938;50.812;7.738;2023-07-13T06:40:56;45.30;99.90
3846;DHT22;1938;50.812;7.738;2023-07-13T06:43:21;44.30;99.90
3846;DHT22;1938;50.812;7.738;2023-07-13T06:45:49;44.10;99.90
3846;DHT22;1938;50.812;7.738;2023-07-13T06:48:16;43.20;99.90
3846;DHT22;1938;50.812;7.738;2023-07-13T06:50:42;42.90;99.90
3846;DHT22;1938;50.812;7.738;2023-07-13T06:53:08;43.10;99.90
3846;DHT22;1938;50.812;7.738;2023-07-13T06:55:34;42.20;99.90
3846;DHT22;1938;50.812;7.738;2023-07-13T06:57:59;41.30;99.90
3846;DHT22;1938;50.812;7.738;2023-07-13T07:00:25;40.70;99.90
3846;DHT22;1938;50.812;7.738;2023-07-13T07:02:52;40.20;99.90
3846;DHT22;1938;50.812;7.738;2023-07-13T07:05:17;39.70;99.90
3846;DHT22;1938;50.812;7.738;2023-07-13T07:07:43;39.20;99.90
3846;DHT22;1938;50.812;7.738;2023-07-13T07:10:08;38.30;99.90
3846;DHT22;1938;50.812;7.738;2023-07-13T07:12:34;37.30;99.90
3846;DHT22;1938;50.812;7.738;2023-07-13T07:14:59;35.70;99.90
3846;DHT22;1938;50.812;7.738;2023-07-13T07:17:25;35.10;99.90
3846;DHT22;1938;50.812;7.738;2023-07-13T07:19:52;34.30;99.90
3846;DHT22;1938;50.812;7.738;2023-07-13T07:22:19;34.30;99.90
3846;DHT22;1938;50.812;7.738;2023-07-13T07:24:45;34.60;99.90
3846;DHT22;1938;50.812;7.738;2023-07-13T07:27:10;35.00;99.90
3846;DHT22;1938;50.812;7.738;2023-07-13T07:29:36;35.50;99.90
3846;DHT22;1938;50.812;7.738;2023-07-13T07:32:02;35.60;99.90
3846;DHT22;1938;50.812;7.738;2023-07-13T07:34:27;35.60;99.90
3846;DHT22;1938;50.812;7.738;2023-07-13T07:36:53;35.50;99.90
3846;DHT22;1938;50.812;7.738;2023-07-13T07:39:19;35.20;99.90
3846;DHT22;1938;50.812;7.738;2023-07-13T07:41:44;35.30;99.90
3846;DHT22;1938;50.812;7.738;2023-07-13T07:44:10;35.90;99.90
3846;DHT22;1938;50.812;7.738;2023-07-13T07:46:36;36.50;99.90
3846;DHT22;1938;50.812;7.738;2023-07-13T07:49:02;37.60;99.90
3846;DHT22;1938;50.812;7.738;2023-07-13T07:51:27;38.70;99.90
3846;DHT22;1938;50.812;7.738;2023-07-13T07:53:54;38.90;99.90
3846;DHT22;1938;50.812;7.738;2023-07-13T07:56:20;39.40;99.90
3846;DHT22;1938;50.812;7.738;2023-07-13T07:58:45;40.10;99.90
3846;DHT22;1938;50.812;7.738;2023-07-13T08:01:11;40.70;99.90
3846;DHT22;1938;50.812;7.738;2023-07-13T08:03:36;41.00;99.90
3846;DHT22;1938;50.812;7.738;2023-07-13T08:06:02;41.10;99.90
3846;DHT22;1938;50.812;7.738;2023-07-13T08:08:28;40.70;99.90
3846;DHT22;1938;50.812;7.738;2023-07-13T08:10:54;40.40;99.90
3846;DHT22;1938;50.812;7.738;2023-07-13T08:13:19;40.00;99.90
3846;DHT22;1938;50.812;7.738;2023-07-13T08:15:46;39.20;99.90
3846;DHT22;1938;50.812;7.738;2023-07-13T08:18:12;38.30;99.90
3846;DHT22;1938;50.812;7.738;2023-07-13T08:20:40;37.80;99.90
3846;DHT22;1938;50.812;7.738;2023-07-13T08:23:10;37.20;99.90
3846;DHT22;1938;50.812;7.738;2023-07-13T08:25:35;36.90;99.90
3846;DHT22;1938;50.812;7.738;2023-07-13T08:28:02;37.10;99.90
3846;DHT22;1938;50.812;7.738;2023-07-13T08:30:28;36.50;99.90
3846;DHT22;1938;50.812;7.738;2023-07-13T08:32:54;36.60;99.90
3846;DHT22;1938;50.812;7.738;2023-07-13T08:35:20;36.50;99.90
3846;DHT22;1938;50.812;7.738;2023-07-13T08:37:45;36.40;99.90
3846;DHT22;1938;50.812;7.738;2023-07-13T08:40:11;37.00;99.90
3846;DHT22;1938;50.812;7.738;2023-07-13T08:42:42;37.30;99.90
3846;DHT22;1938;50.812;7.738;2023-07-13T08:45:42;37.70;99.90
3846;DHT22;1938;50.812;7.738;2023-07-13T08:48:17;37.60;99.90
3846;DHT22;1938;50.812;7.738;2023-07-13T08:53:42;36.90;99.90
3846;DHT22;1938;50.812;7.738;2023-07-13T08:56:15;36.70;99.90
3846;DHT22;1938;50.812;7.738;2023-07-13T08:58:41;36.40;99.90
3846;DHT22;1938;50.812;7.738;2023-07-13T09:01:19;35.50;99.90
3846;DHT22;1938;50.812;7.738;2023-07-13T09:03:57;35.20;99.90
3846;DHT22;1938;50.812;7.738;2023-07-13T09:06:34;35.00;99.90
3846;DHT22;1938;50.812;7.738;2023-07-13T09:09:17;35.50;99.90
3846;DHT22;1938;50.812;7.738;2023-07-13T09:12:17;36.10;99.90
3846;DHT22;1938;50.812;7.738;2023-07-13T09:14:48;36.20;99.90
3846;DHT22;1938;50.812;7.738;2023-07-13T09:17:20;36.60;99.90
3846;DHT22;1938;50.812;7.738;2023-07-13T09:19:57;37.30;99.90
3846;DHT22;1938;50.812;7.738;2023-07-13T09:22:25;37.20;99.90
3846;DHT22;1938;50.812;7.738;2023-07-13T09:25:04;36.70;99.90
3846;DHT22;1938;50.812;7.738;2023-07-13T09:27:43;35.70;99.90
3846;DHT22;1938;50.812;7.738;2023-07-13T09:32:44;33.50;99.90
3846;DHT22;1938;50.812;7.738;2023-07-13T09:35:17;32.90;99.90
3846;DHT22;1938;50.812;7.738;2023-07-13T09:37:45;32.20;99.90
3846;DHT22;1938;50.812;7.738;2023-07-13T09:40:17;31.80;99.90
3846;DHT22;1938;50.812;7.738;2023-07-13T09:42:45;31.10;99.90
3846;DHT22;1938;50.812;7.738;2023-07-13T09:45:17;30.40;99.90
3846;DHT22;1938;50.812;7.738;2023-07-13T09:48:19;30.00;99.90
3846;DHT22;1938;50.812;7.738;2023-07-13T09:50:45;29.60;99.90
3846;DHT22;1938;50.812;7.738;2023-07-13T09:53:13;29.20;99.90
3846;DHT22;1938;50.812;7.738;2023-07-13T09:55:40;28.90;99.90
3846;DHT22;1938;50.812;7.738;2023-07-13T09:58:25;28.80;99.90
3846;DHT22;1938;50.812;7.738;2023-07-13T10:01:04;28.60;99.90
3846;DHT22;1938;50.812;7.738;2023-07-13T10:03:32;28.40;99.90
3846;DHT22;1938;50.812;7.738;2023-07-13T10:06:17;28.40;99.90
3846;DHT22;1938;50.812;7.738;2023-07-13T10:08:45;28.50;99.90
3846;DHT22;1938;50.812;7.738;2023-07-13T10:11:26;28.80;99.90
3846;DHT22;1938;50.812;7.738;2023-07-13T10:13:57;28.90;99.90
3846;DHT22;1938;50.812;7.738;2023-07-13T10:16:25;29.10;99.90
3846;DHT22;1938;50.812;7.738;2023-07-13T10:18:56;29.40;99.90
3846;DHT22;1938;50.812;7.738;2023-07-13T10:21:27;29.10;99.90
3846;DHT22;1938;50.812;7.738;2023-07-13T10:24:27;29.10;99.90
3846;DHT22;1938;50.812;7.738;2023-07-13T10:29:26;28.80;99.90
3846;DHT22;1938;50.812;7.738;2023-07-13T10:31:53;28.80;99.90
3846;DHT22;1938;50.812;7.738;2023-07-13T10:34:18;28.80;99.90
3846;DHT22;1938;50.812;7.738;2023-07-13T10:36:46;28.70;99.90
3846;DHT22;1938;50.812;7.738;2023-07-13T10:39:21;28.40;99.90
3846;DHT22;1938;50.812;7.738;2023-07-13T10:41:53;28.10;99.90
3846;DHT22;1938;50.812;7.738;2023-07-13T10:44:26;28.20;99.90
3846;DHT22;1938;50.812;7.738;2023-07-13T10:47:05;28.00;99.90
3846;DHT22;1938;50.812;7.738;2023-07-13T10:49:33;27.60;99.90
3846;DHT22;1938;50.812;7.738;2023-07-13T10:52:00;27.60;99.90
3846;DHT22;1938;50.812;7.738;2023-07-13T10:54:27;27.70;99.90
3846;DHT22;1938;50.812;7.738;2023-07-13T10:57:17;27.90;99.90
3846;DHT22;1938;50.812;7.738;2023-07-13T11:00:10;28.00;99.90
3846;DHT22;1938;50.812;7.738;2023-07-13T11:02:33;27.70;99.90
3846;DHT22;1938;50.812;7.738;2023-07-13T11:05:34;27.20;99.90
3846;DHT22;1938;50.812;7.738;2023-07-13T11:10:54;26.60;99.90
3846;DHT22;1938;50.812;7.738;2023-07-13T11:13:57;26.60;99.90
3846;DHT22;1938;50.812;7.738;2023-07-13T11:19:08;26.70;99.90
3846;DHT22;1938;50.812;7.738;2023-07-13T11:21:34;27.00;99.90
3846;DHT22;1938;50.812;7.738;2023-07-13T11:24:15;27.20;99.90
3846;DHT22;1938;50.812;7.738;2023-07-13T11:31:42;26.70;99.90
3846;DHT22;1938;50.812;7.738;2023-07-13T11:34:14;26.30;99.90
3846;DHT22;1938;50.812;7.738;2023-07-13T11:36:43;26.10;99.90
3846;DHT22;1938;50.812;7.738;2023-07-13T11:41:59;26.30;99.90
3846;DHT22;1938;50.812;7.738;2023-07-13T11:44:28;26.30;99.90
3846;DHT22;1938;50.812;7.738;2023-07-13T11:47:11;26.20;99.90
3846;DHT22;1938;50.812;7.738;2023-07-13T11:49:55;26.00;99.90
3846;DHT22;1938;50.812;7.738;2023-07-13T11:52:32;25.80;99.90
3846;DHT22;1938;50.812;7.738;2023-07-13T11:55:02;25.60;99.90
3846;DHT22;1938;50.812;7.738;2023-07-13T11:57:33;25.40;99.90
3846;DHT22;1938;50.812;7.738;2023-07-13T12:00:04;25.50;99.90
3846;DHT22;1938;50.812;7.738;2023-07-13T12:02:46;25.30;99.90
3846;DHT22;1938;50.812;7.738;2023-07-13T12:05:15;25.20;99.90
3846;DHT22;1938;50.812;7.738;2023-07-13T12:07:41;25.30;99.90
3846;DHT22;1938;50.812;7.738;2023-07-13T12:10:22;25.20;99.90
3846;DHT22;1938;50.812;7.738;2023-07-13T12:12:53;25.30;99.90
3846;DHT22;1938;50.812;7.738;2023-07-13T12:15:21;25.50;99.90
3846;DHT22;1938;50.812;7.738;2023-07-13T12:17:48;25.50;99.90
3846;DHT22;1938;50.812;7.738;2023-07-13T12:20:35;25.40;99.90
3846;DHT22;1938;50.812;7.738;2023-07-13T12:23:05;25.50;99.90
3846;DHT22;1938;50.812;7.738;2023-07-13T12:25:32;25.60;99.90
3846;DHT22;1938;50.812;7.738;2023-07-13T12:27:58;25.50;99.90
3846;DHT22;1938;50.812;7.738;2023-07-13T12:30:30;25.50;99.90
3846;DHT22;1938;50.812;7.738;2023-07-13T12:33:07;25.50;99.90
3846;DHT22;1938;50.812;7.738;2023-07-13T12:35:47;25.40;99.90
3846;DHT22;1938;50.812;7.738;2023-07-13T12:38:13;25.50;99.90
3846;DHT22;1938;50.812;7.738;2023-07-13T12:40:40;25.50;99.90
3846;DHT22;1938;50.812;7.738;2023-07-13T12:43:13;25.70;99.90
3846;DHT22;1938;50.812;7.738;2023-07-13T12:45:39;25.90;99.90
3846;DHT22;1938;50.812;7.738;2023-07-13T12:48:20;25.90;99.90
3846;DHT22;1938;50.812;7.738;2023-07-13T12:50:48;26.00;99.90
3846;DHT22;1938;50.812;7.738;2023-07-13T12:53:19;26.00;99.90
3846;DHT22;1938;50.812;7.738;2023-07-13T12:55:53;26.00;99.90
3846;DHT22;1938;50.812;7.738;2023-07-13T12:58:25;26.00;99.90
3846;DHT22;1938;50.812;7.738;2023-07-13T13:00:54;25.90;99.90
3846;DHT22;1938;50.812;7.738;2023-07-13T13:03:33;25.80;99.90
3846;DHT22;1938;50.812;7.738;2023-07-13T13:06:04;25.70;99.90
3846;DHT22;1938;50.812;7.738;2023-07-13T13:08:33;25.70;99.90
3846;DHT22;1938;50.812;7.738;2023-07-13T13:10:59;25.80;99.90
3846;DHT22;1938;50.812;7.738;2023-07-13T13:13:25;25.90;99.90
3846;DHT22;1938;50.812;7.738;2023-07-13T13:15:50;25.90;99.90
3846;DHT22;1938;50.812;7.738;2023-07-13T13:18:17;25.80;99.90
3846;DHT22;1938;50.812;7.738;2023-07-13T13:20:43;25.80;99.90
3846;DHT22;1938;50.812;7.738;2023-07-13T13:23:17;25.70;99.90
3846;DHT22;1938;50.812;7.738;2023-07-13T13:25:45;25.70;99.90
3846;DHT22;1938;50.812;7.738;2023-07-13T13:28:16;25.70;99.90
3846;DHT22;1938;50.812;7.738;2023-07-13T13:30:42;25.80;99.90
3846;DHT22;1938;50.812;7.738;2023-07-13T13:33:13;25.90;99.90
3846;DHT22;1938;50.812;7.738;2023-07-13T13:35:40;26.00;99.90
3846;DHT22;1938;50.812;7.738;2023-07-13T13:40:37;26.10;99.90
3846;DHT22;1938;50.812;7.738;2023-07-13T13:43:09;26.10;99.90
3846;DHT22;1938;50.812;7.738;2023-07-13T13:45:38;25.80;99.90
3846;DHT22;1938;50.812;7.738;2023-07-13T13:48:05;25.60;99.90
3846;DHT22;1938;50.812;7.738;2023-07-13T13:50:30;25.60;99.90
3846;DHT22;1938;50.812;7.738;2023-07-13T13:52:56;25.60;99.90
3846;DHT22;1938;50.812;7.738;2023-07-13T13:55:21;25.60;99.90
3846;DHT22;1938;50.812;7.738;2023-07-13T13:57:49;25.60;99.90
3846;DHT22;1938;50.812;7.738;2023-07-13T14:00:16;25.60;99.90
3846;DHT22;1938;50.812;7.738;2023-07-13T14:02:45;25.60;99.90
3846;DHT22;1938;50.812;7.738;2023-07-13T14:05:22;25.70;99.90
3846;DHT22;1938;50.812;7.738;2023-07-13T14:07:48;25.80;99.90
3846;DHT22;1938;50.812;7.738;2023-07-13T14:10:15;25.90;99.90
3846;DHT22;1938;50.812;7.738;2023-07-13T14:12:46;25.90;99.90
3846;DHT22;1938;50.812;7.738;2023-07-13T14:15:22;25.80;99.90
3846;DHT22;1938;50.812;7.738;2023-07-13T14:17:48;25.70;99.90
3846;DHT22;1938;50.812;7.738;2023-07-13T14:20:16;25.80;99.90
3846;DHT22;1938;50.812;7.738;2023-07-13T14:22:42;25.90;99.90
3846;DHT22;1938;50.812;7.738;2023-07-13T14:25:14;26.10;99.90
3846;DHT22;1938;50.812;7.738;2023-07-13T14:27:41;26.20;99.90
3846;DHT22;1938;50.812;7.738;2023-07-13T14:30:18;26.30;99.90
3846;DHT22;1938;50.812;7.738;2023-07-13T14:32:44;26.40;99.90
3846;DHT22;1938;50.812;7.738;2023-07-13T14:35:12;26.50;99.90
3846;DHT22;1938;50.812;7.738;2023-07-13T14:37:39;26.40;99.90
3846;DHT22;1938;50.812;7.738;2023-07-13T14:40:29;26.40;99.90
3846;DHT22;1938;50.812;7.738;2023-07-13T14:42:54;26.20;99.90
3846;DHT22;1938;50.812;7.738;2023-07-13T14:45:20;26.00;99.90
3846;DHT22;1938;50.812;7.738;2023-07-13T14:47:46;25.80;99.90
3846;DHT22;1938;50.812;7.738;2023-07-13T14:50:31;25.70;99.90
3846;DHT22;1938;50.812;7.738;2023-07-13T14:52:58;25.70;99.90
3846;DHT22;1938;50.812;7.738;2023-07-13T14:55:24;25.90;99.90
3846;DHT22;1938;50.812;7.738;2023-07-13T14:57:52;26.00;99.90
3846;DHT22;1938;50.812;7.738;2023-07-13T15:00:21;25.90;99.90
3846;DHT22;1938;50.812;7.738;2023-07-13T15:02:51;25.70;99.90
3846;DHT22;1938;50.812;7.738;2023-07-13T15:05:21;25.70;99.90
3846;DHT22;1938;50.812;7.738;2023-07-13T15:07:48;25.70;99.90
3846;DHT22;1938;50.812;7.738;2023-07-13T15:10:16;25.60;99.90
3846;DHT22;1938;50.812;7.738;2023-07-13T15:12:42;25.60;99.90
3846;DHT22;1938;50.812;7.738;2023-07-13T15:15:07;25.50;99.90
3846;DHT22;1938;50.812;7.738;2023-07-13T15:17:38;25.50;99.90
3846;DHT22;1938;50.812;7.738;2023-07-13T15:22:46;25.20;99.90
3846;DHT22;1938;50.812;7.738;2023-07-13T15:25:16;25.00;99.90
3846;DHT22;1938;50.812;7.738;2023-07-13T15:27:42;25.00;99.90
3846;DHT22;1938;50.812;7.738;2023-07-13T15:30:07;24.90;99.90
3846;DHT22;1938;50.812;7.738;2023-07-13T15:32:35;25.00;99.90
3846;DHT22;1938;50.812;7.738;2023-07-13T15:35:00;25.00;99.90
3846;DHT22;1938;50.812;7.738;2023-07-13T15:37:26;25.00;99.90
3846;DHT22;1938;50.812;7.738;2023-07-13T15:39:51;24.90;99.90
3846;DHT22;1938;50.812;7.738;2023-07-13T15:42:20;24.70;99.90
3846;DHT22;1938;50.812;7.738;2023-07-13T15:44:46;24.50;99.90
3846;DHT22;1938;50.812;7.738;2023-07-13T15:47:13;24.40;99.90
3846;DHT22;1938;50.812;7.738;2023-07-13T15:49:40;24.30;99.90
3846;DHT22;1938;50.812;7.738;2023-07-13T15:52:19;24.10;99.90
3846;DHT22;1938;50.812;7.738;2023-07-13T15:54:46;24.10;99.90
3846;DHT22;1938;50.812;7.738;2023-07-13T15:57:13;24.10;99.90
3846;DHT22;1938;50.812;7.738;2023-07-13T15:59:39;24.10;99.90
3846;DHT22;1938;50.812;7.738;2023-07-13T16:02:18;24.20;99.90
3846;DHT22;1938;50.812;7.738;2023-07-13T16:04:45;24.20;99.90
3846;DHT22;1938;50.812;7.738;2023-07-13T16:07:11;24.20;99.90
3846;DHT22;1938;50.812;7.738;2023-07-13T16:09:38;24.20;99.90
3846;DHT22;1938;50.812;7.738;2023-07-13T16:12:10;24.30;99.90
3846;DHT22;1938;50.812;7.738;2023-07-13T16:14:38;24.20;99.90
3846;DHT22;1938;50.812;7.738;2023-07-13T16:17:05;24.10;99.90
3846;DHT22;1938;50.812;7.738;2023-07-13T16:19:31;24.00;99.90
3846;DHT22;1938;50.812;7.738;2023-07-13T16:21:58;24.00;99.90
3846;DHT22;1938;50.812;7.738;2023-07-13T16:24:26;24.10;99.90
3846;DHT22;1938;50.812;7.738;2023-07-13T16:26:52;24.10;99.90
3846;DHT22;1938;50.812;7.738;2023-07-13T16:29:23;24.00;99.90
3846;DHT22;1938;50.812;7.738;2023-07-13T16:31:59;23.80;99.90
3846;DHT22;1938;50.812;7.738;2023-07-13T16:34:28;23.70;99.90
3846;DHT22;1938;50.812;7.738;2023-07-13T16:36:54;23.60;99.90
3846;DHT22;1938;50.812;7.738;2023-07-13T16:39:20;23.40;99.90
3846;DHT22;1938;50.812;7.738;2023-07-13T16:41:48;23.30;99.90
3846;DHT22;1938;50.812;7.738;2023-07-13T16:44:17;23.30;99.90